Time;durP1;ratioP1;P1;durP2;ratioP2;P2;SDS_P1;SDS_P2;PMS_P1;PMS_P2;Temp;Humidity;BMP_temperature;BMP_pressure;BME280_temperature;BME280_humidity;BME280_pressure;Samples;Min_cycle;Max_cycle;Signal;HPM_P1;HPM_P2
2022/03/30 00:00:44;;;;;;;41.17;22.52;;;;;;;;;;5089261;28;20130;-87
2022/03/30 00:03:10;;;;;;;39.22;21.33;;;;;;;;;;5087734;28;20025;-88
2022/03/30 00:05:36;;;;;;;48.50;22.48;;;;;;;;;;5089920;28;20112;-85
2022/03/30 00:08:02;;;;;;;36.40;20.08;;;;;;;;;;5089301;28;20020;-88
2022/03/30 00:10:29;;;;;;;42.95;20.60;;;;;;;;;;5088784;28;20169;-85
2022/03/30 00:12:56;;;;;;;35.13;18.58;;;;;;;;;;5087492;28;20052;-86
2022/03/30 00:15:22;;;;;;;38.75;20.38;;;;;;;;;;5087443;28;20396;-86
2022/03/30 00:17:48;;;;;;;41.25;21.88;;;;;;;;;;5088928;28;20024;-88
2022/03/30 00:20:14;;;;;;;37.83;21.52;;;;;;;;;;5089519;28;20028;-86
2022/03/30 00:22:40;;;;;;;39.35;20.10;;;;;;;;;;5092669;28;20028;-86
2022/03/30 00:25:07;;;;;;;43.30;22.40;;;;;;;;;;5092108;28;20036;-86
2022/03/30 00:27:34;;;;;;;48.75;22.58;;;;;;;;;;5092226;28;20024;-88
2022/03/30 00:30:00;;;;;;;45.60;20.65;;;;;;;;;;5091512;28;20029;-87
2022/03/30 00:32:26;;;;;;;41.25;21.63;;;;;;;;;;5091333;28;20028;-86
2022/03/30 00:34:53;;;;;;;37.72;21.13;;;;;;;;;;5091060;28;20028;-87
2022/03/30 00:37:19;;;;;;;48.75;22.67;;;;;;;;;;5092564;28;20049;-87
2022/03/30 00:39:45;;;;;;;48.80;22.58;;;;;;;;;;5091237;28;20031;-84
2022/03/30 00:42:18;;;;;;;40.85;22.55;;;;;;;;;;5092201;28;20035;-87
2022/03/30 00:44:46;;;;;;;45.78;21.58;;;;;;;;;;5092184;28;20093;-87
2022/03/30 00:47:20;;;;;;;42.28;21.73;;;;;;;;;;5091927;28;20068;-87
2022/03/30 00:49:47;;;;;;;34.60;22.40;;;;;;;;;;5092304;28;20028;-87
2022/03/30 00:52:13;;;;;;;34.35;20.33;;;;;;;;;;5090620;28;20150;-87
2022/03/30 00:54:41;;;;;;;40.65;21.77;;;;;;;;;;5090836;28;20051;-85
2022/03/30 00:57:09;;;;;;;43.77;22.90;;;;;;;;;;5092779;28;20024;-88
2022/03/30 00:59:35;;;;;;;49.47;24.45;;;;;;;;;;5091817;28;20263;-87
2022/03/30 01:02:01;;;;;;;45.30;23.83;;;;;;;;;;5090484;28;20039;-87
2022/03/30 01:04:28;;;;;;;38.35;21.73;;;;;;;;;;5091861;28;20028;-85
2022/03/30 01:06:54;;;;;;;47.20;23.83;;;;;;;;;;5090495;28;20028;-87
2022/03/30 01:09:20;;;;;;;45.58;23.30;;;;;;;;;;5092140;28;20077;-86
2022/03/30 01:11:51;;;;;;;43.17;24.58;;;;;;;;;;5091957;28;20063;-88
2022/03/30 01:14:18;;;;;;;45.75;22.65;;;;;;;;;;5091221;28;20470;-87
2022/03/30 01:16:44;;;;;;;46.22;25.48;;;;;;;;;;5090480;28;20031;-86
2022/03/30 01:19:10;;;;;;;41.25;23.45;;;;;;;;;;5090320;28;20024;-86
2022/03/30 01:21:40;;;;;;;47.10;22.73;;;;;;;;;;5091431;28;20452;-88
2022/03/30 01:24:08;;;;;;;47.92;23.88;;;;;;;;;;5091131;28;20070;-86
2022/03/30 01:26:34;;;;;;;38.20;21.03;;;;;;;;;;5090470;28;20471;-85
2022/03/30 01:29:01;;;;;;;38.03;21.27;;;;;;;;;;5091430;28;20306;-87
2022/03/30 01:34:12;;;;;;;42.78;23.63;;;;;;;;;;5091761;28;20093;-87
2022/03/30 01:36:38;;;;;;;47.17;25.63;;;;;;;;;;5091358;28;20024;-87
2022/03/30 01:39:05;;;;;;;40.42;22.48;;;;;;;;;;5089793;28;20077;-85
2022/03/30 01:41:32;;;;;;;48.15;25.40;;;;;;;;;;5091195;28;20032;-87
2022/03/30 01:43:59;;;;;;;43.80;23.75;;;;;;;;;;5090912;28;20523;-85
2022/03/30 01:46:25;;;;;;;49.85;27.10;;;;;;;;;;5089935;28;20016;-85
2022/03/30 01:48:51;;;;;;;41.67;22.73;;;;;;;;;;5089771;28;20024;-86
2022/03/30 01:51:17;;;;;;;45.47;23.38;;;;;;;;;;5091149;28;20017;-87
2022/03/30 01:53:43;;;;;;;50.15;24.67;;;;;;;;;;5089903;28;20115;-87
2022/03/30 01:56:09;;;;;;;48.67;23.92;;;;;;;;;;5090490;28;20024;-88
2022/03/30 01:58:35;;;;;;;43.13;23.65;;;;;;;;;;5091317;28;20081;-87
2022/03/30 02:01:03;;;;;;;52.60;27.38;;;;;;;;;;5091163;28;20590;-87
2022/03/30 02:03:29;;;;;;;48.78;24.63;;;;;;;;;;5091240;28;20028;-89
2022/03/30 02:05:56;;;;;;;53.42;27.67;;;;;;;;;;5089761;28;20047;-89
2022/03/30 02:08:22;;;;;;;49.60;24.17;;;;;;;;;;5089954;28;20035;-88
2022/03/30 02:10:48;;;;;;;58.90;28.90;;;;;;;;;;5090884;28;20099;-86
2022/03/30 02:13:14;;;;;;;50.75;25.33;;;;;;;;;;5089201;28;20024;-88
2022/03/30 02:15:40;;;;;;;59.20;28.55;;;;;;;;;;5091496;28;20468;-85
2022/03/30 02:18:06;;;;;;;48.25;25.88;;;;;;;;;;5089206;28;20031;-85
2022/03/30 02:20:32;;;;;;;61.30;29.63;;;;;;;;;;5090850;28;20397;-87
2022/03/30 02:22:59;;;;;;;60.10;30.58;;;;;;;;;;5089281;28;20119;-84
2022/03/30 02:25:26;;;;;;;65.72;31.90;;;;;;;;;;5090629;28;20032;-88
2022/03/30 02:27:52;;;;;;;64.88;28.63;;;;;;;;;;5089395;28;20024;-86
2022/03/30 02:30:18;;;;;;;62.05;31.88;;;;;;;;;;5090610;28;20074;-89
2022/03/30 02:32:44;;;;;;;72.18;34.05;;;;;;;;;;5090434;28;20024;-86
2022/03/30 02:35:12;;;;;;;65.50;31.20;;;;;;;;;;5090979;28;20074;-89
2022/03/30 02:37:38;;;;;;;67.43;32.05;;;;;;;;;;5091288;28;20107;-89
2022/03/30 02:40:05;;;;;;;81.53;37.03;;;;;;;;;;5088858;28;20062;-87
2022/03/30 02:42:31;;;;;;;85.18;37.75;;;;;;;;;;5089351;28;20034;-88
2022/03/30 02:44:57;;;;;;;93.32;38.35;;;;;;;;;;5088968;28;20041;-86
2022/03/30 02:48:17;;;;;;;88.78;37.88;;;;;;;;;;5090156;28;20024;-85
2022/03/30 02:50:09;;;;;;;86.45;37.40;;;;;;;;;;5090584;28;20384;-85
2022/03/30 02:52:35;;;;;;;86.93;36.47;;;;;;;;;;5089858;28;20492;-85
2022/03/30 02:55:01;;;;;;;102.55;40.33;;;;;;;;;;5089787;28;20140;-84
2022/03/30 02:57:27;;;;;;;92.65;41.60;;;;;;;;;;5089695;28;20024;-88
2022/03/30 02:59:53;;;;;;;100.38;40.15;;;;;;;;;;5089306;28;20144;-84
2022/03/30 03:02:19;;;;;;;102.82;42.25;;;;;;;;;;5088226;28;20111;-85
2022/03/30 03:04:46;;;;;;;105.57;42.40;;;;;;;;;;5089383;28;20525;-89
2022/03/30 03:07:14;;;;;;;115.95;45.78;;;;;;;;;;5088886;28;20088;-87
2022/03/30 03:09:40;;;;;;;;;;;;;;;;;;5090750;28;20035;-87
2022/03/30 03:12:06;;;;;;;113.18;43.80;;;;;;;;;;5089396;28;19998;-86
2022/03/30 03:14:33;;;;;;;136.32;49.42;;;;;;;;;;5089664;28;20023;-87
2022/03/30 03:16:59;;;;;;;114.35;46.30;;;;;;;;;;5089343;28;20016;-87
2022/03/30 03:19:25;;;;;;;120.97;46.05;;;;;;;;;;5089259;28;20480;-84
2022/03/30 03:21:51;;;;;;;127.18;49.83;;;;;;;;;;5089220;28;20020;-86
2022/03/30 03:24:17;;;;;;;119.35;44.67;;;;;;;;;;5088098;28;20400;-85
2022/03/30 03:26:43;;;;;;;124.35;47.35;;;;;;;;;;5088432;28;20052;-84
2022/03/30 03:29:09;;;;;;;135.82;52.67;;;;;;;;;;5089486;28;20055;-83
2022/03/30 03:31:35;;;;;;;118.50;45.88;;;;;;;;;;5088892;28;20052;-87
2022/03/30 03:34:01;;;;;;;127.15;47.97;;;;;;;;;;5088765;28;20044;-86
2022/03/30 03:36:27;;;;;;;123.13;48.88;;;;;;;;;;5087610;28;20031;-83
2022/03/30 03:38:54;;;;;;;131.77;47.90;;;;;;;;;;5087853;28;20491;-87
2022/03/30 03:41:20;;;;;;;109.22;44.50;;;;;;;;;;5088141;28;20115;-88
2022/03/30 03:43:46;;;;;;;123.57;48.70;;;;;;;;;;5088313;28;20020;-86
2022/03/30 03:46:12;;;;;;;122.90;45.60;;;;;;;;;;5089593;28;20038;-86
2022/03/30 03:48:38;;;;;;;119.80;46.30;;;;;;;;;;5088438;28;20020;-86
2022/03/30 03:51:04;;;;;;;113.97;44.28;;;9.90;99.90;;;;;;5088079;28;20024;-88
2022/03/30 03:53:30;;;;;;;115.25;45.38;;;10.00;99.90;;;;;;5088390;28;20046;-87
2022/03/30 03:55:55;;;;;;;111.03;44.17;;;10.20;99.90;;;;;;5087904;28;20020;-87
2022/03/30 03:58:21;;;;;;;114.43;44.83;;;10.30;99.90;;;;;;5089443;28;20494;-86
2022/03/30 04:00:47;;;;;;;115.60;45.75;;;10.20;99.90;;;;;;5088176;28;20167;-85
2022/03/30 04:03:13;;;;;;;129.20;45.95;;;10.30;99.90;;;;;;5088575;28;20039;-87
2022/03/30 04:05:38;;;;;;;122.43;46.85;;;10.30;99.90;;;;;;5089329;28;20396;-87
2022/03/30 04:08:04;;;;;;;114.78;44.75;;;10.30;99.90;;;;;;5088352;28;20031;-88
2022/03/30 04:10:30;;;;;;;119.65;43.63;;;10.40;99.90;;;;;;5088500;28;20028;-87
2022/03/30 04:12:56;;;;;;;120.38;43.08;;;10.40;99.90;;;;;;5088304;28;20031;-87
2022/03/30 04:15:21;;;;;;;123.03;44.75;;;10.40;99.90;;;;;;5088067;28;20028;-85
2022/03/30 04:17:48;;;;;;;142.55;48.40;;;10.40;99.90;;;;;;5087710;28;20031;-86
2022/03/30 04:20:16;;;;;;;135.25;46.97;;;10.40;99.90;;;;;;5080359;28;20021;-87
2022/03/30 04:22:43;;;;;;;153.90;49.77;;;10.30;99.90;;;;;;5084356;28;20396;-87
2022/03/30 04:25:10;;;;;;;144.80;48.33;;;10.30;99.90;;;;;;5086919;28;20455;-87
2022/03/30 04:27:35;;;;;;;152.90;49.13;;;10.30;99.90;;;;;;5089049;28;20522;-88
2022/03/30 04:30:01;;;;;;;144.73;50.75;;;10.40;99.90;;;;;;5087373;28;20048;-87
2022/03/30 04:32:27;;;;;;;146.85;51.47;;;10.40;99.90;;;;;;5088562;28;20020;-86
2022/03/30 04:34:52;;;;;;;152.05;48.22;;;10.30;99.90;;;;;;5088723;28;20024;-86
2022/03/30 04:37:19;;;;;;;153.80;47.40;;;10.30;99.90;;;;;;5089305;28;20023;-87
2022/03/30 04:39:44;;;;;;;146.40;47.72;;;10.40;99.90;;;;;;5088901;28;20104;-89
2022/03/30 04:42:10;;;;;;;141.82;45.83;;;10.30;99.90;;;;;;5088342;28;20396;-88
2022/03/30 04:44:36;;;;;;;139.20;48.50;;;10.40;99.90;;;;;;5087988;28;20043;-87
2022/03/30 04:47:01;;;;;;;149.27;48.85;;;10.40;99.90;;;;;;5089153;28;20032;-87
2022/03/30 04:49:27;;;;;;;145.60;47.25;;;10.40;99.90;;;;;;5089612;28;20028;-89
2022/03/30 04:51:53;;;;;;;145.80;46.53;;;10.30;99.90;;;;;;5089659;28;20031;-87
2022/03/30 04:54:19;;;;;;;143.98;46.22;;;10.40;99.90;;;;;;5089512;28;20148;-84
2022/03/30 04:56:45;;;;;;;149.18;45.78;;;10.40;99.90;;;;;;5089195;28;20042;-86
2022/03/30 04:59:11;;;;;;;137.52;45.42;;;10.40;99.90;;;;;;5088623;28;20032;-88
2022/03/30 05:01:37;;;;;;;150.23;48.80;;;10.40;99.90;;;;;;5087794;28;20012;-86
2022/03/30 05:04:07;;;;;;;156.55;50.67;;;10.40;99.90;;;;;;5088005;28;20043;-85
2022/03/30 05:06:33;;;;;;;139.63;45.55;;;10.40;99.90;;;;;;5088076;28;20020;-87
2022/03/30 05:08:59;;;;;;;136.88;45.13;;;10.40;99.90;;;;;;5093474;28;20020;-90
2022/03/30 05:11:24;;;;;;;146.00;47.25;;;10.50;99.90;;;;;;5092190;28;20365;-88
2022/03/30 05:13:50;;;;;;;146.80;47.75;;;10.50;99.90;;;;;;5092142;28;20096;-90
2022/03/30 05:16:16;;;;;;;149.70;49.83;;;10.50;99.90;;;;;;5092700;28;20020;-88
2022/03/30 05:18:52;;;;;;;;;;;;;;;;;;;;;
2022/03/30 05:21:18;;;;;;;154.95;50.30;;;10.40;99.90;;;;;;5094492;28;20050;-92
2022/03/30 05:23:44;;;;;;;151.10;49.88;;;10.40;99.90;;;;;;5092086;28;20119;-92
2022/03/30 05:26:09;;;;;;;158.23;50.65;;;10.40;99.90;;;;;;5091894;28;20489;-92
2022/03/30 05:28:38;;;;;;;164.15;52.53;;;10.40;99.90;;;;;;5091842;28;20576;-91
2022/03/30 05:31:05;;;;;;;168.73;56.55;;;10.40;99.90;;;;;;5091798;28;20515;-90
2022/03/30 05:33:31;;;;;;;158.23;53.10;;;10.30;99.90;;;;;;5091480;28;20393;-88
2022/03/30 05:35:56;;;;;;;158.02;52.72;;;10.30;99.90;;;;;;5091498;28;20023;-89
2022/03/30 05:38:22;;;;;;;161.40;52.80;;;10.40;99.90;;;;;;5091365;28;20043;-89
2022/03/30 05:40:48;;;;;;;141.88;49.97;;;10.30;99.90;;;;;;5093097;28;20427;-90
2022/03/30 05:43:14;;;;;;;158.40;54.13;;;10.40;99.90;;;;;;5091294;28;20028;-89
2022/03/30 05:45:39;;;;;;;157.50;51.72;;;10.30;99.90;;;;;;5091482;28;20110;-92
2022/03/30 05:48:05;;;;;;;162.13;51.55;;;10.30;99.90;;;;;;5091540;28;20094;-93
2022/03/30 05:50:31;;;;;;;160.52;55.08;;;10.30;99.90;;;;;;5091459;28;20126;-90
2022/03/30 05:52:57;;;;;;;164.18;54.80;;;10.30;99.90;;;;;;5091424;28;20392;-93
2022/03/30 05:55:23;;;;;;;161.73;55.58;;;10.30;99.90;;;;;;5091098;28;20016;-91
2022/03/30 05:57:49;;;;;;;164.77;56.78;;;10.30;99.90;;;;;;5091981;28;20030;-87
2022/03/30 06:00:15;;;;;;;160.98;55.72;;;10.30;99.90;;;;;;5091265;28;20062;-88
2022/03/30 06:02:41;;;;;;;179.05;61.10;;;10.30;99.90;;;;;;5091366;28;20048;-89
2022/03/30 06:05:07;;;;;;;173.18;58.65;;;10.30;99.90;;;;;;5091589;28;20047;-91
2022/03/30 06:07:33;;;;;;;172.07;58.80;;;10.30;99.90;;;;;;5091177;28;20475;-91
2022/03/30 06:09:59;;;;;;;158.13;56.95;;;10.30;99.90;;;;;;5091267;28;20058;-92
2022/03/30 06:12:25;;;;;;;158.90;57.08;;;10.40;99.90;;;;;;5091450;28;20020;-90
2022/03/30 06:14:51;;;;;;;187.75;63.53;;;10.30;99.90;;;;;;5091803;28;20389;-90
2022/03/30 06:17:19;;;;;;;175.35;64.60;;;10.30;99.90;;;;;;5091849;28;20113;-89
2022/03/30 06:19:51;;;;;;;173.50;61.67;;;10.30;99.90;;;;;;5091212;28;20429;-87
2022/03/30 06:22:17;;;;;;;170.15;60.03;;;10.30;99.90;;;;;;5092239;28;20024;-91
2022/03/30 06:24:43;;;;;;;160.25;58.13;;;10.30;99.90;;;;;;5090998;28;20067;-88
2022/03/30 06:27:10;;;;;;;173.13;57.65;;;10.30;99.90;;;;;;5091971;28;20493;-91
2022/03/30 06:29:37;;;;;;;181.57;63.13;;;10.40;99.90;;;;;;5090517;28;20077;-90
2022/03/30 06:32:04;;;;;;;172.18;62.22;;;10.30;99.90;;;;;;5090388;28;20024;-91
2022/03/30 06:34:29;;;;;;;168.40;62.58;;;10.40;99.90;;;;;;5090640;28;20020;-88
2022/03/30 06:36:55;;;;;;;171.68;63.00;;;10.30;99.90;;;;;;5090647;28;20050;-88
2022/03/30 06:39:22;;;;;;;173.48;63.25;;;10.30;99.90;;;;;;5091272;28;20020;-90
2022/03/30 06:41:48;;;;;;;154.25;58.40;;;10.20;99.90;;;;;;5090856;28;20036;-90
2022/03/30 06:44:15;;;;;;;153.95;58.25;;;10.30;99.90;;;;;;5090376;28;20179;-90
2022/03/30 06:46:41;;;;;;;167.02;59.15;;;10.30;99.90;;;;;;5090354;28;20066;-90
2022/03/30 06:49:09;;;;;;;161.07;57.90;;;10.30;99.90;;;;;;5090376;28;20416;-87
2022/03/30 06:51:35;;;;;;;168.77;61.63;;;10.30;99.90;;;;;;5090503;28;20020;-87
2022/03/30 06:54:01;;;;;;;164.60;60.40;;;10.30;99.90;;;;;;5089837;28;20032;-89
2022/03/30 06:56:27;;;;;;;172.60;63.53;;;10.30;99.90;;;;;;5090128;28;20021;-89
2022/03/30 06:58:54;;;;;;;171.95;63.00;;;10.30;99.90;;;;;;5090697;28;20074;-88
2022/03/30 07:01:20;;;;;;;165.05;61.67;;;10.30;99.90;;;;;;5090946;28;20025;-88
2022/03/30 07:03:46;;;;;;;179.82;65.05;;;10.30;99.90;;;;;;5089919;28;20024;-88
2022/03/30 07:06:12;;;;;;;187.73;65.38;;;10.30;99.90;;;;;;5090080;28;20032;-88
2022/03/30 07:11:22;;;;;;;187.02;64.55;;;10.30;99.90;;;;;;5091927;28;20032;-87
2022/03/30 07:13:48;;;;;;;174.77;64.57;;;10.30;99.90;;;;;;5091464;28;20025;-92
2022/03/30 07:16:14;;;;;;;189.73;65.40;;;10.30;99.90;;;;;;5089975;28;20035;-87
2022/03/30 07:18:40;;;;;;;178.88;62.55;;;10.30;99.90;;;;;;5090664;28;20020;-90
2022/03/30 07:21:05;;;;;;;189.90;62.63;;;10.20;99.90;;;;;;5091032;28;20027;-89
2022/03/30 07:23:31;;;;;;;193.13;64.15;;;10.20;99.90;;;;;;5089340;28;20058;-88
2022/03/30 07:26:00;;;;;;;177.40;62.20;;;10.20;99.90;;;;;;5090770;28;20559;-89
2022/03/30 07:28:30;;;;;;;189.70;63.67;;;10.20;99.90;;;;;;5090353;28;20102;-92
2022/03/30 07:30:56;;;;;;;188.60;62.67;;;10.30;99.90;;;;;;5089644;28;20028;-89
2022/03/30 07:33:23;;;;;;;180.68;63.60;;;10.30;99.90;;;;;;5090518;28;20023;-90
2022/03/30 07:35:49;;;;;;;174.50;59.65;;;10.30;99.90;;;;;;5089483;28;20111;-89
2022/03/30 07:38:17;;;;;;;180.63;60.50;;;10.30;99.90;;;;;;5089641;28;20519;-92
2022/03/30 07:40:45;;;;;;;143.10;54.67;;;10.40;99.90;;;;;;5089630;28;20024;-88
2022/03/30 07:43:12;;;;;;;148.93;53.80;;;10.40;99.90;;;;;;5090343;28;20052;-88
2022/03/30 07:45:38;;;;;;;138.27;51.03;;;10.40;99.90;;;;;;5090482;28;20024;-89
2022/03/30 07:48:05;;;;;;;124.22;49.17;;;10.30;99.90;;;;;;5089233;28;20024;-90
2022/03/30 07:50:31;;;;;;;126.18;50.90;;;10.30;99.90;;;;;;5089528;28;20032;-90
2022/03/30 07:52:57;;;;;;;130.05;50.80;;;10.30;99.90;;;;;;5089591;28;20035;-89
2022/03/30 07:55:24;;;;;;;135.00;51.25;;;10.30;99.90;;;;;;5090380;28;20032;-89
2022/03/30 07:57:50;;;;;;;118.93;48.03;;;10.30;99.90;;;;;;5089288;28;20024;-90
2022/03/30 08:00:17;;;;;;;115.22;48.88;;;10.30;99.90;;;;;;5089229;28;20047;-88
2022/03/30 08:02:44;;;;;;;115.60;47.40;;;10.30;99.90;;;;;;5089240;28;20039;-92
2022/03/30 08:05:12;;;;;;;121.50;49.28;;;10.40;99.90;;;;;;5089076;28;20119;-88
2022/03/30 08:07:43;;;;;;;116.80;46.97;;;10.40;99.90;;;;;;5089249;28;20016;-88
2022/03/30 08:10:10;;;;;;;120.03;49.17;;;10.40;99.90;;;;;;5089073;28;20525;-87
2022/03/30 08:12:40;;;;;;;110.65;46.00;;;10.40;99.90;;;;;;5090080;28;20468;-89
2022/03/30 08:15:07;;;;;;;104.95;44.13;;;10.40;99.90;;;;;;5088760;28;20032;-88
2022/03/30 08:17:32;;;;;;;97.55;47.13;;;10.40;99.90;;;;;;5088576;28;20086;-90
2022/03/30 08:19:59;;;;;;;105.55;45.45;;;10.40;99.90;;;;;;5088821;28;20016;-89
2022/03/30 08:22:25;;;;;;;103.28;44.13;;;10.40;99.90;;;;;;5089680;28;20032;-88
2022/03/30 08:24:53;;;;;;;100.40;45.05;;;10.50;99.90;;;;;;5088621;28;20496;-87
2022/03/30 08:27:21;;;;;;;95.25;43.13;;;10.40;99.90;;;;;;5090022;28;20020;-87
2022/03/30 08:29:48;;;;;;;95.45;43.63;;;10.40;99.90;;;;;;5088657;28;20024;-90
2022/03/30 08:32:15;;;;;;;93.53;42.90;;;10.40;99.90;;;;;;5088552;28;20054;-88
2022/03/30 08:34:41;;;;;;;88.63;40.97;;;10.50;99.90;;;;;;5088781;28;20020;-90
2022/03/30 08:37:08;;;;;;;92.43;41.15;;;10.50;99.90;;;;;;5088818;28;20020;-90
2022/03/30 08:39:35;;;;;;;90.60;42.47;;;10.40;99.90;;;;;;5088838;28;20058;-89
2022/03/30 08:42:03;;;;;;;87.30;39.53;;;10.40;99.90;;;;;;5089333;28;20020;-88
2022/03/30 08:44:30;;;;;;;91.00;42.42;;;10.40;99.90;;;;;;5093267;28;20492;-90
2022/03/30 08:46:56;;;;;;;83.70;40.30;;;10.40;99.90;;;;;;5093344;28;20115;-89
2022/03/30 08:49:22;;;;;;;92.82;40.58;;;10.40;99.90;;;;;;5092665;28;20498;-92
2022/03/30 08:51:49;;;;;;;101.40;42.03;;;10.30;99.90;;;;;;5092449;28;20031;-91
2022/03/30 08:54:17;;;;;;;94.40;42.95;;;10.40;99.90;;;;;;5092534;28;20373;-88
2022/03/30 08:56:43;;;;;;;90.10;41.58;;;10.20;99.90;;;;;;5092611;28;20400;-89
2022/03/30 08:59:11;;;;;;;90.35;41.80;;;10.20;99.90;;;;;;5092458;28;20028;-91
2022/03/30 09:01:39;;;;;;;85.85;40.00;;;10.20;99.90;;;;;;5092782;28;20035;-92
2022/03/30 09:04:12;;;;;;;86.68;38.55;;;10.20;99.90;;;;;;5092834;28;20101;-88
2022/03/30 09:06:44;;;;;;;75.22;37.17;;;10.10;99.90;;;;;;5092264;28;20027;-91
2022/03/30 09:09:11;;;;;;;83.55;38.35;;;10.10;99.90;;;;;;5092485;28;20024;-89
2022/03/30 09:11:44;;;;;;;74.03;35.97;;;10.10;99.90;;;;;;5092369;28;20017;-88
2022/03/30 09:14:12;;;;;;;74.35;37.08;;;10.10;99.90;;;;;;5092307;28;20028;-91
2022/03/30 09:16:42;;;;;;;88.68;38.17;;;10.20;99.90;;;;;;5092201;28;20038;-90
2022/03/30 09:19:10;;;;;;;95.05;42.25;;;10.10;99.90;;;;;;5092221;28;20399;-89
2022/03/30 09:21:46;;;;;;;84.55;38.20;;;10.10;99.90;;;;;;5092223;28;20028;-88
2022/03/30 09:24:13;;;;;;;85.43;38.30;;;10.00;99.90;;;;;;5092123;28;20466;-90
2022/03/30 09:26:40;;;;;;;93.57;41.55;;;10.10;99.90;;;;;;5092041;28;20040;-89
2022/03/30 09:29:07;;;;;;;93.43;42.20;;;10.10;99.90;;;;;;5091842;28;20060;-90
2022/03/30 09:31:36;;;;;;;110.50;46.08;;;10.10;99.90;;;;;;5091995;28;20089;-89
2022/03/30 09:34:07;;;;;;;112.28;45.92;;;10.00;99.90;;;;;;5092404;28;20081;-89
2022/03/30 09:36:35;;;;;;;111.90;47.80;;;10.00;99.90;;;;;;5092270;28;20031;-87
2022/03/30 09:39:03;;;;;;;97.95;43.13;;;10.10;99.90;;;;;;5092893;28;20028;-89
2022/03/30 09:41:51;;;;;;;105.80;41.95;;;10.20;99.90;;;;;;5092390;28;20119;-90
2022/03/30 09:44:17;;;;;;;108.07;46.57;;;10.20;99.90;;;;;;5091894;28;20036;-88
2022/03/30 09:47:05;;;;;;;119.47;46.95;;;10.30;99.90;;;;;;5091544;28;20024;-88
2022/03/30 09:49:38;;;;;;;123.50;48.33;;;10.30;99.90;;;;;;5092326;28;20092;-90
2022/03/30 09:52:26;;;;;;;123.78;52.17;;;10.40;99.90;;;;;;5091372;28;20024;-90
2022/03/30 09:55:03;;;;;;;130.15;52.20;;;10.40;99.90;;;;;;5091420;28;20056;-93
2022/03/30 09:57:41;;;;;;;125.07;50.08;;;10.40;99.90;;;;;;5092075;28;20071;-89
2022/03/30 10:00:15;;;;;;;119.72;49.97;;;10.40;99.90;;;;;;5092667;28;20053;-92
2022/03/30 10:02:45;;;;;;;110.85;46.72;;;10.60;99.90;;;;;;5091385;28;20081;-91
2022/03/30 10:05:12;;;;;;;120.20;49.70;;;10.60;99.90;;;;;;5091060;28;20036;-88
2022/03/30 10:07:39;;;;;;;112.53;47.65;;;10.60;99.90;;;;;;5091279;28;20134;-91
2022/03/30 10:10:10;;;;;;;110.55;49.05;;;10.70;99.90;;;;;;5090918;28;20029;-89
2022/03/30 10:12:37;;;;;;;106.28;46.50;;;10.70;99.90;;;;;;5090928;28;20077;-92
2022/03/30 10:15:07;;;;;;;113.85;49.08;;;10.60;99.90;;;;;;5091587;28;20028;-90
2022/03/30 10:17:33;;;;;;;118.35;48.80;;;10.70;99.90;;;;;;5091713;28;20031;-89
2022/03/30 10:20:01;;;;;;;114.25;48.35;;;10.70;99.90;;;;;;5091053;28;20051;-91
2022/03/30 10:22:45;;;;;;;112.20;48.77;;;10.60;99.90;;;;;;5091155;28;20020;-88
2022/03/30 10:25:17;;;;;;;111.95;47.60;;;10.60;99.90;;;;;;5090810;28;20036;-89
2022/03/30 10:28:19;;;;;;;109.70;48.58;;;10.60;99.90;;;;;;5090739;28;20063;-89
2022/03/30 10:30:45;;;;;;;103.22;44.67;;;10.60;99.90;;;;;;5090874;28;20110;-91
2022/03/30 10:33:12;;;;;;;98.28;44.30;;;10.70;99.90;;;;;;5090785;28;20031;-89
2022/03/30 10:35:47;;;;;;;107.28;46.40;;;10.70;99.90;;;;;;5091916;28;20012;-90
2022/03/30 10:38:15;;;;;;;107.35;46.47;;;10.80;99.90;;;;;;5090952;28;20039;-91
2022/03/30 10:40:42;;;;;;;99.07;43.95;;;10.70;99.90;;;;;;5090670;28;20027;-89
2022/03/30 10:43:23;;;;;;;98.38;41.90;;;10.70;99.90;;;;;;5090740;28;20036;-91
2022/03/30 10:46:01;;;;;;;109.47;43.42;;;10.70;99.90;;;;;;5090658;28;20380;-89
2022/03/30 10:48:29;;;;;;;101.25;42.72;;;10.80;99.90;;;;;;5090471;28;20066;-89
2022/03/30 10:51:01;;;;;;;86.15;40.05;;;10.70;99.90;;;;;;5090486;28;20084;-90
2022/03/30 10:53:38;;;;;;;82.78;40.50;;;10.70;99.90;;;;;;5090427;28;20511;-88
2022/03/30 10:56:18;;;;;;;92.68;40.88;;;10.70;99.90;;;;;;5091150;28;20032;-89
2022/03/30 10:58:49;;;;;;;84.13;37.58;;;10.70;99.90;;;;;;5090403;28;20024;-89
2022/03/30 11:01:15;;;;;;;84.45;40.10;;;10.70;99.90;;;;;;5090104;28;20059;-90
2022/03/30 11:04:13;;;;;;;96.55;42.65;;;10.70;99.90;;;;;;5090190;28;20062;-89
2022/03/30 11:06:40;;;;;;;90.15;42.90;;;10.60;99.90;;;;;;5089486;28;20066;-90
2022/03/30 11:09:09;;;;;;;96.20;42.87;;;10.70;99.90;;;;;;5090798;28;20025;-90
2022/03/30 11:11:40;;;;;;;101.20;44.13;;;10.70;99.90;;;;;;5090783;28;20028;-92
2022/03/30 11:14:28;;;;;;;98.63;44.85;;;10.80;99.90;;;;;;5090778;28;20028;-88
2022/03/30 11:17:08;;;;;;;108.47;46.17;;;10.50;99.90;;;;;;5090117;28;20031;-89
2022/03/30 11:19:55;;;;;;;103.57;45.92;;;10.70;99.90;;;;;;5090353;28;20032;-90
2022/03/30 11:22:36;;;;;;;101.18;43.08;;;10.70;99.90;;;;;;5089909;28;20028;-89
2022/03/30 11:25:23;;;;;;;98.47;42.72;;;10.80;99.90;;;;;;5089870;28;20036;-90
2022/03/30 11:27:58;;;;;;;91.65;43.08;;;10.80;99.90;;;;;;5089443;28;20027;-90
2022/03/30 11:30:31;;;;;;;112.68;43.35;;;10.80;99.90;;;;;;5089545;28;20486;-88
2022/03/30 11:33:14;;;;;;;102.80;43.28;;;10.70;99.90;;;;;;5089712;28;20392;-88
2022/03/30 11:35:43;;;;;;;93.60;43.42;;;10.70;99.90;;;;;;5089557;28;20111;-88
2022/03/30 11:38:32;;;;;;;103.70;43.38;;;10.70;99.90;;;;;;5089613;28;20082;-87
2022/03/30 11:41:05;;;;;;;92.03;43.22;;;10.80;99.90;;;;;;5089297;28;20087;-88
2022/03/30 11:43:36;;;;;;;96.35;41.88;;;10.90;99.90;;;;;;5089436;28;20032;-88
2022/03/30 11:46:03;;;;;;;98.63;43.13;;;10.90;99.90;;;;;;5089616;28;20039;-90
2022/03/30 11:48:39;;;;;;;108.15;45.45;;;10.90;99.90;;;;;;5090419;28;20078;-88
2022/03/30 11:51:05;;;;;;;103.68;43.97;;;10.90;99.90;;;;;;5091433;28;20028;-91
2022/03/30 11:53:32;;;;;;;109.38;46.95;;;10.80;99.90;;;;;;5089232;28;20118;-90
2022/03/30 11:56:08;;;;;;;112.00;45.47;;;10.80;99.90;;;;;;5089254;28;20028;-89
2022/03/30 11:58:41;;;;;;;114.72;46.90;;;10.80;99.90;;;;;;5091174;28;20483;-92
2022/03/30 12:01:10;;;;;;;107.97;46.05;;;10.80;99.90;;;;;;5090090;28;20479;-87
2022/03/30 12:03:37;;;;;;;109.65;46.22;;;10.80;99.90;;;;;;5091077;28;20099;-89
2022/03/30 12:06:05;;;;;;;107.55;45.83;;;10.90;99.90;;;;;;5089121;28;20035;-88
2022/03/30 12:08:46;;;;;;;118.35;47.90;;;11.00;99.90;;;;;;5089397;28;20045;-88
2022/03/30 12:11:12;;;;;;;118.63;49.10;;;10.70;99.90;;;;;;5089313;28;20082;-92
2022/03/30 12:13:38;;;;;;;120.82;48.05;;;10.70;99.90;;;;;;5091038;28;20020;-90
2022/03/30 12:16:13;;;;;;;108.95;46.85;;;10.70;99.90;;;;;;5090081;28;20131;-91
2022/03/30 12:18:51;;;;;;;107.03;45.53;;;10.70;99.90;;;;;;5093964;28;20020;-90
2022/03/30 12:21:19;;;;;;;113.40;47.88;;;10.70;99.90;;;;;;5093102;28;20032;-92
2022/03/30 12:23:57;;;;;;;118.25;47.72;;;10.80;99.90;;;;;;5093037;28;20031;-89
2022/03/30 12:26:23;;;;;;;107.63;45.95;;;10.80;99.90;;;;;;5092987;28;20034;-89
2022/03/30 12:28:49;;;;;;;109.05;47.45;;;10.80;99.90;;;;;;5092972;28;20106;-88
2022/03/30 12:31:15;;;;;;;108.20;47.75;;;10.80;99.90;;;;;;5094233;28;20115;-89
2022/03/30 12:33:50;;;;;;;110.82;47.40;;;10.80;99.90;;;;;;5093692;28;20027;-89
2022/03/30 12:36:18;;;;;;;97.60;43.47;;;10.80;99.90;;;;;;5092958;28;20024;-88
2022/03/30 12:38:49;;;;;;;107.70;44.95;;;10.80;99.90;;;;;;5092636;28;20502;-92
2022/03/30 12:41:26;;;;;;;106.03;45.00;;;10.90;99.90;;;;;;5092642;28;20110;-90
2022/03/30 12:44:02;;;;;;;104.55;44.67;;;10.90;99.90;;;;;;5092357;28;20032;-91
2022/03/30 12:46:32;;;;;;;106.82;43.08;;;10.90;99.90;;;;;;5092994;28;20507;-90
2022/03/30 12:49:08;;;;;;;91.22;41.83;;;10.90;99.90;;;;;;5092800;28;20020;-91
2022/03/30 12:51:36;;;;;;;98.03;42.28;;;11.00;99.90;;;;;;5092921;28;20516;-90
2022/03/30 12:54:03;;;;;;;89.88;40.03;;;11.00;99.90;;;;;;5092919;28;20275;-88
2022/03/30 12:56:29;;;;;;;90.25;40.78;;;11.00;99.90;;;;;;5093618;28;20099;-91
2022/03/30 12:59:04;;;;;;;90.88;38.50;;;10.90;99.90;;;;;;5093750;28;20058;-88
2022/03/30 13:01:42;;;;;;;87.85;38.75;;;10.90;99.90;;;;;;5092489;28;20024;-90
2022/03/30 13:04:28;;;;;;;89.05;38.88;;;10.90;99.90;;;;;;5092304;28;20127;-90